Time,TemperatureF,DewpointF,PressureIn,WindDirection,WindDirectionDegrees,WindSpeedMPH,WindSpeedGustMPH,Humidity,HourlyPrecipIn,Conditions,Clouds,dailyrainin,SoftwareType,DateUTC
2013-02-12 00:06:00,31.6,31.6,29.52,NW,315,0.0,0.0,100,0.00,,,0.00,WSDL version 423,2013-02-12 05:06:00,
2013-02-12 00:16:00,32.1,32.1,29.51,NW,315,0.0,0.0,100,0.00,,,0.00,WSDL version 423,2013-02-12 05:16:00,
2013-02-12 00:26:00,32.4,32.4,29.51,NW,315,0.0,3.1,100,0.00,,,0.00,WSDL version 423,2013-02-12 05:26:00,
2013-02-12 00:36:00,32.4,32.4,29.51,NW,315,0.0,0.0,100,0.00,,,0.00,WSDL version 423,2013-02-12 05:36:00,
2013-02-12 00:46:00,32.2,32.2,29.51,NW,315,0.0,0.0,100,0.00,,,0.00,WSDL version 423,2013-02-12 05:46:00,
2013-02-12 00:56:00,32.7,32.7,29.51,NW,315,0.0,0.0,100,0.00,,,0.00,WSDL version 423,2013-02-12 05:56:00,
2013-02-12 01:06:00,33.0,33.0,29.50,NW,315,0.0,0.0,100,0.00,,,0.00,WSDL version 423,2013-02-12 06:06:00,
2013-02-12 01:16:00,33.2,33.2,29.50,NW,315,0.0,0.0,100,0.00,,,0.00,WSDL version 423,2013-02-12 06:16:00,
2013-02-12 01:26:00,33.7,33.7,29.51,NW,315,0.0,3.1,100,0.00,,,0.00,WSDL version 423,2013-02-12 06:26:00,
2013-02-12 01:36:00,34.1,34.1,29.51,NW,315,0.0,3.1,100,0.00,,,0.00,WSDL version 423,2013-02-12 06:36:00,
2013-02-12 01:46:00,34.5,34.5,29.51,West,270,1.8,4.9,100,0.00,,,0.00,WSDL version 423,2013-02-12 06:46:00,
2013-02-12 01:56:00,34.4,34.4,29.52,North,10,0.0,4.9,100,0.00,,,0.00,WSDL version 423,2013-02-12 06:56:00,
2013-02-12 02:06:00,34.0,34.0,29.52,ENE,64,3.4,6.3,100,0.00,,,0.00,WSDL version 423,2013-02-12 07:06:00,
2013-02-12 02:16:00,33.7,33.7,29.51,SW,231,1.9,4.9,100,0.00,,,0.00,WSDL version 423,2013-02-12 07:16:00,
2013-02-12 02:26:00,33.6,33.6,29.51,North,352,2.7,5.4,100,0.00,,,0.00,WSDL version 423,2013-02-12 07:26:00,
2013-02-12 02:36:00,33.5,33.5,29.51,NNW,333,1.2,7.6,100,0.00,,,0.00,WSDL version 423,2013-02-12 07:36:00,
2013-02-12 02:46:00,33.6,33.6,29.51,West,266,2.8,6.3,100,0.00,,,0.00,WSDL version 423,2013-02-12 07:46:00,
2013-02-12 02:56:00,33.5,33.5,29.52,SW,236,0.0,7.2,100,0.00,,,0.00,WSDL version 423,2013-02-12 07:56:00,
2013-02-12 03:06:00,33.5,33.5,29.52,NNW,341,0.0,5.8,100,0.00,,,0.00,WSDL version 423,2013-02-12 08:06:00,
2013-02-12 03:16:00,33.3,33.3,29.53,SW,231,2.2,5.8,100,0.00,,,0.00,WSDL version 423,2013-02-12 08:16:00,
2013-02-12 03:26:00,33.1,33.1,29.53,NNW,330,0.0,3.1,100,0.00,,,0.00,WSDL version 423,2013-02-12 08:26:00,
2013-02-12 03:36:00,32.9,32.9,29.53,WSW,241,0.6,3.6,100,0.00,,,0.00,WSDL version 423,2013-02-12 08:36:00,
2013-02-12 03:46:00,32.8,32.8,29.52,SW,218,0.0,2.7,100,0.00,,,0.00,WSDL version 423,2013-02-12 08:46:00,
2013-02-12 03:56:00,32.4,32.4,29.52,ESE,116,0.0,4.0,100,0.00,,,0.00,WSDL version 423,2013-02-12 08:56:00,
2013-02-12 04:06:00,32.5,32.5,29.52,WSW,248,0.8,4.9,100,0.00,,,0.00,WSDL version 423,2013-02-12 09:06:00,
2013-02-12 04:16:00,32.5,32.5,29.53,NE,56,0.0,3.1,100,0.00,,,0.00,WSDL version 423,2013-02-12 09:16:00,
2013-02-12 04:26:00,32.3,32.3,29.53,WSW,248,0.0,2.7,100,0.00,,,0.00,WSDL version 423,2013-02-12 09:26:00,
2013-02-12 04:36:00,32.2,32.2,29.53,WNW,299,0.0,4.0,100,-99.99,,,-99.99,WSDL version 423,2013-02-12 09:36:00,
2013-02-12 04:46:00,32.3,32.3,29.53,North,357,0.0,5.4,100,0.00,,,0.00,WSDL version 423,2013-02-12 09:46:00,
2013-02-12 04:56:00,32.2,32.2,29.54,ESE,119,0.0,2.2,100,0.00,,,0.00,WSDL version 423,2013-02-12 09:56:00,
2013-02-12 05:06:00,32.2,32.2,29.54,NE,45,0.0,0.0,100,0.00,,,0.00,WSDL version 423,2013-02-12 10:06:00,
2013-02-12 05:16:00,32.2,32.2,29.54,NW,318,0.0,4.0,100,0.00,,,0.00,WSDL version 423,2013-02-12 10:16:00,
2013-02-12 05:26:00,32.4,32.4,29.54,NW,323,0.7,4.9,100,0.00,,,0.00,WSDL version 423,2013-02-12 10:26:00,
2013-02-12 05:36:00,32.5,32.5,29.54,WNW,295,0.0,4.0,100,0.00,,,0.00,WSDL version 423,2013-02-12 10:36:00,
2013-02-12 05:46:00,32.5,32.5,29.54,NNW,328,0.0,4.9,100,0.00,,,0.00,WSDL version 423,2013-02-12 10:46:00,
2013-02-12 05:56:00,32.3,32.3,29.55,West,270,0.6,3.6,100,0.00,,,0.00,WSDL version 423,2013-02-12 10:56:00,
2013-02-12 06:06:00,32.0,32.0,29.55,WNW,293,0.0,0.0,100,0.00,,,0.00,WSDL version 423,2013-02-12 11:06:00,
2013-02-12 06:16:00,31.7,31.7,29.56,WNW,293,0.0,0.0,100,0.00,,,0.00,WSDL version 423,2013-02-12 11:16:00,
2013-02-12 06:26:00,32.0,32.0,29.57,WNW,293,0.0,0.0,100,0.00,,,0.00,WSDL version 423,2013-02-12 11:26:00,
2013-02-12 06:36:00,32.6,32.6,29.57,WNW,293,0.0,2.7,100,0.00,,,0.00,WSDL version 423,2013-02-12 11:36:00,
2013-02-12 06:46:00,33.3,33.3,29.56,SSE,158,0.0,4.9,100,0.00,,,0.00,WSDL version 423,2013-02-12 11:46:00,
2013-02-12 06:56:00,33.6,33.6,29.56,NW,321,0.6,5.4,100,0.00,,,0.00,WSDL version 423,2013-02-12 11:56:00,
2013-02-12 07:06:00,33.9,33.9,29.57,West,278,0.0,3.1,100,0.00,,,0.00,WSDL version 423,2013-02-12 12:06:00,
2013-02-12 07:16:00,34.4,34.4,29.57,WSW,248,0.0,3.6,100,0.00,,,0.00,WSDL version 423,2013-02-12 12:16:00,
2013-02-12 07:26:00,34.7,34.7,29.57,NNW,343,0.0,3.1,100,0.00,,,0.00,WSDL version 423,2013-02-12 12:26:00,
2013-02-12 07:36:00,35.2,35.2,29.57,WNW,283,0.0,4.0,100,0.00,,,0.00,WSDL version 423,2013-02-12 12:36:00,
2013-02-12 07:46:00,35.8,35.8,29.57,South,180,0.0,4.0,100,0.00,,,0.00,WSDL version 423,2013-02-12 12:46:00,
2013-02-12 07:56:00,36.3,36.3,29.57,West,267,0.0,4.0,100,0.00,,,0.00,WSDL version 423,2013-02-12 12:56:00,
2013-02-12 08:06:00,36.6,36.6,29.57,WSW,254,1.3,8.3,100,0.00,,,0.00,WSDL version 423,2013-02-12 13:06:00,
2013-02-12 08:16:00,37.0,37.0,29.57,West,270,0.0,4.5,100,0.00,,,0.00,WSDL version 423,2013-02-12 13:16:00,
2013-02-12 08:26:00,37.6,37.6,29.57,NNW,341,0.0,5.8,100,0.00,,,0.00,WSDL version 423,2013-02-12 13:26:00,
2013-02-12 08:36:00,38.3,38.3,29.57,SW,214,1.1,8.1,100,0.00,,,0.00,WSDL version 423,2013-02-12 13:36:00,
2013-02-12 08:46:00,38.9,38.9,29.57,NW,304,4.5,7.6,100,0.00,,,0.00,WSDL version 423,2013-02-12 13:46:00,
2013-02-12 08:56:00,39.4,39.4,29.58,NW,321,0.0,6.3,100,0.00,,,0.00,WSDL version 423,2013-02-12 13:56:00,
2013-02-12 09:06:00,40.0,40.0,29.58,West,265,1.6,8.1,100,0.00,,,0.00,WSDL version 423,2013-02-12 14:06:00,
2013-02-12 09:16:00,40.5,40.5,29.58,WSW,238,3.7,7.6,100,0.00,,,0.00,WSDL version 423,2013-02-12 14:16:00,
2013-02-12 09:26:00,40.8,40.8,29.58,West,260,3.3,8.1,100,0.00,,,0.00,WSDL version 423,2013-02-12 14:26:00,
2013-02-12 09:36:00,41.6,41.6,29.58,West,264,2.9,5.4,100,0.00,,,0.00,WSDL version 423,2013-02-12 14:36:00,
2013-02-12 09:46:00,42.0,42.0,29.58,ESE,107,3.5,10.5,100,0.00,,,0.00,WSDL version 423,2013-02-12 14:46:00,
2013-02-12 09:56:00,43.2,43.2,29.58,West,262,5.0,8.3,100,0.00,,,0.00,WSDL version 423,2013-02-12 14:56:00,
2013-02-12 10:06:00,43.7,43.7,29.58,NNE,26,3.4,7.6,100,0.00,,,0.00,WSDL version 423,2013-02-12 15:06:00,
2013-02-12 10:16:00,45.0,45.0,29.58,WSW,244,0.7,8.1,100,0.00,,,0.00,WSDL version 423,2013-02-12 15:16:00,
2013-02-12 10:26:00,44.9,44.9,29.59,SSW,208,4.5,10.5,100,0.00,,,0.00,WSDL version 423,2013-02-12 15:26:00,
2013-02-12 10:36:00,44.8,44.8,29.59,West,281,3.3,8.1,100,0.04,,,0.04,WSDL version 423,2013-02-12 15:36:00,
2013-02-12 10:46:00,45.1,45.1,29.59,NW,304,1.2,6.3,100,0.04,,,0.04,WSDL version 423,2013-02-12 15:46:00,
2013-02-12 10:56:00,44.1,44.1,29.58,ESE,113,3.4,6.3,100,0.04,,,0.04,WSDL version 423,2013-02-12 15:56:00,
2013-02-12 11:06:00,45.0,45.0,29.58,North,357,2.9,11.9,100,0.04,,,0.04,WSDL version 423,2013-02-12 16:06:00,
2013-02-12 11:16:00,44.6,44.6,29.58,NNE,23,5.0,10.5,100,0.04,,,0.04,WSDL version 423,2013-02-12 16:16:00,
2013-02-12 11:26:00,45.2,45.2,29.58,NW,312,4.0,10.5,100,0.04,,,0.04,WSDL version 423,2013-02-12 16:26:00,
2013-02-12 11:36:00,45.3,45.3,29.58,NE,34,4.3,6.3,100,0.00,,,0.04,WSDL version 423,2013-02-12 16:36:00,
2013-02-12 11:46:00,44.8,44.8,29.59,West,275,4.7,8.1,100,0.00,,,0.04,WSDL version 423,2013-02-12 16:46:00,
2013-02-12 11:56:00,43.6,43.6,29.58,West,262,4.1,9.6,100,0.00,,,0.04,WSDL version 423,2013-02-12 16:56:00,
2013-02-12 12:06:00,44.2,44.2,29.59,West,273,3.4,7.6,100,0.00,,,0.04,WSDL version 423,2013-02-12 17:06:00,
2013-02-12 12:16:00,44.2,44.2,29.58,NW,315,3.7,8.1,100,0.00,,,0.04,WSDL version 423,2013-02-12 17:16:00,
2013-02-12 12:26:00,44.4,44.4,29.58,North,6,3.2,9.6,100,0.00,,,0.04,WSDL version 423,2013-02-12 17:26:00,
2013-02-12 12:36:00,45.4,45.4,29.59,WNW,295,4.0,8.3,100,0.00,,,0.04,WSDL version 423,2013-02-12 17:36:00,
2013-02-12 12:46:00,45.3,45.3,29.59,West,279,5.2,10.1,100,0.00,,,0.04,WSDL version 423,2013-02-12 17:46:00,
2013-02-12 12:56:00,45.3,45.3,29.59,WSW,251,4.6,8.3,100,0.04,,,0.08,WSDL version 423,2013-02-12 17:56:00,
2013-02-12 13:06:00,45.8,45.8,29.59,West,273,3.5,8.3,100,0.04,,,0.08,WSDL version 423,2013-02-12 18:06:00,
2013-02-12 13:16:00,46.1,46.1,29.59,ENE,74,2.2,8.1,100,0.04,,,0.08,WSDL version 423,2013-02-12 18:16:00,
2013-02-12 13:26:00,45.7,45.7,29.59,NW,315,3.0,8.7,100,0.04,,,0.08,WSDL version 423,2013-02-12 18:26:00,
2013-02-12 13:36:00,46.9,46.9,29.60,NW,315,4.5,7.6,100,0.04,,,0.08,WSDL version 423,2013-02-12 18:36:00,
2013-02-12 13:46:00,44.4,44.4,29.60,West,278,1.6,8.7,100,0.04,,,0.08,WSDL version 423,2013-02-12 18:46:00,
2013-02-12 13:56:00,44.3,44.3,29.61,SW,236,3.0,8.3,100,0.00,,,0.08,WSDL version 423,2013-02-12 18:56:00,
2013-02-12 14:06:00,44.4,44.4,29.61,SW,228,4.5,7.6,100,0.00,,,0.08,WSDL version 423,2013-02-12 19:06:00,
2013-02-12 14:16:00,43.0,43.0,29.62,East,85,3.0,7.6,100,0.00,,,0.08,WSDL version 423,2013-02-12 19:16:00,
2013-02-12 14:26:00,42.0,42.0,29.62,West,260,1.3,8.7,100,0.00,,,0.08,WSDL version 423,2013-02-12 19:26:00,
2013-02-12 14:36:00,41.3,41.3,29.62,WNW,299,2.6,5.8,100,0.00,,,0.08,WSDL version 423,2013-02-12 19:36:00,
2013-02-12 14:46:00,40.7,40.7,29.63,North,11,3.1,8.7,100,0.00,,,0.08,WSDL version 423,2013-02-12 19:46:00,
2013-02-12 14:56:00,40.4,40.4,29.63,SSE,152,2.3,7.6,100,0.00,,,0.08,WSDL version 423,2013-02-12 19:56:00,
2013-02-12 15:06:00,40.1,40.1,29.64,ESE,110,2.3,6.3,100,0.00,,,0.08,WSDL version 423,2013-02-12 20:06:00,
2013-02-12 15:16:00,39.9,39.9,29.64,West,276,0.4,8.1,100,0.00,,,0.08,WSDL version 423,2013-02-12 20:16:00,
2013-02-12 15:26:00,39.5,39.5,29.65,SSE,163,1.9,5.8,100,0.00,,,0.08,WSDL version 423,2013-02-12 20:26:00,
2013-02-12 15:36:00,39.3,39.3,29.65,WSW,244,4.0,8.1,100,0.00,,,0.08,WSDL version 423,2013-02-12 20:36:00,
2013-02-12 15:46:00,39.0,39.0,29.65,West,267,2.8,5.8,100,0.00,,,0.08,WSDL version 423,2013-02-12 20:46:00,
2013-02-12 15:56:00,38.9,38.9,29.64,NNW,334,0.5,4.9,100,0.00,,,0.08,WSDL version 423,2013-02-12 20:56:00,
2013-02-12 16:06:00,38.8,38.8,29.64,NW,304,1.2,6.7,100,0.00,,,0.08,WSDL version 423,2013-02-12 21:06:00,
2013-02-12 16:16:00,38.7,38.7,29.64,NE,38,1.2,7.6,100,0.00,,,0.08,WSDL version 423,2013-02-12 21:16:00,
2013-02-12 16:26:00,38.3,38.3,29.64,WSW,242,1.8,7.2,100,0.00,,,0.08,WSDL version 423,2013-02-12 21:26:00,
2013-02-12 16:36:00,38.5,38.5,29.63,West,270,2.1,7.6,100,0.04,,,0.13,WSDL version 423,2013-02-12 21:36:00,
2013-02-12 16:46:00,38.2,38.2,29.64,WNW,285,1.6,6.3,100,0.04,,,0.13,WSDL version 423,2013-02-12 21:46:00,
2013-02-12 16:56:00,38.2,38.2,29.65,WSW,248,2.6,5.8,100,0.04,,,0.13,WSDL version 423,2013-02-12 21:56:00,
2013-02-12 17:06:00,38.2,38.2,29.64,NW,323,0.0,5.4,100,0.04,,,0.13,WSDL version 423,2013-02-12 22:06:00,
2013-02-12 17:16:00,37.6,37.6,29.64,NW,323,0.0,5.8,100,0.04,,,0.13,WSDL version 423,2013-02-12 22:16:00,
2013-02-12 17:26:00,37.5,37.5,29.65,NW,315,0.6,5.8,100,0.04,,,0.13,WSDL version 423,2013-02-12 22:26:00,
2013-02-12 17:36:00,37.6,37.6,29.65,North,354,0.6,4.0,100,0.00,,,0.13,WSDL version 423,2013-02-12 22:36:00,
2013-02-12 17:46:00,37.2,37.2,29.65,WNW,288,0.0,4.9,100,0.00,,,0.13,WSDL version 423,2013-02-12 22:46:00,
2013-02-12 17:56:00,36.9,36.9,29.65,West,280,0.0,4.0,100,0.00,,,0.13,WSDL version 423,2013-02-12 22:56:00,
2013-02-12 18:06:00,36.8,36.8,29.65,North,360,2.1,6.3,100,0.00,,,0.13,WSDL version 423,2013-02-12 23:06:00,
2013-02-12 18:16:00,36.8,36.8,29.66,SSE,149,0.0,0.0,100,0.00,,,0.13,WSDL version 423,2013-02-12 23:16:00,
2013-02-12 18:26:00,36.6,36.6,29.66,NNW,345,0.0,5.8,100,0.00,,,0.13,WSDL version 423,2013-02-12 23:26:00,
2013-02-12 18:36:00,36.6,36.6,29.66,SW,225,0.0,5.4,100,0.00,,,0.13,WSDL version 423,2013-02-12 23:36:00,
2013-02-12 18:46:00,36.4,36.4,29.67,SW,233,0.0,3.6,100,0.00,,,0.13,WSDL version 423,2013-02-12 23:46:00,
2013-02-12 18:56:00,36.3,36.3,29.68,South,180,0.0,3.1,100,0.00,,,0.13,WSDL version 423,2013-02-12 23:56:00,
2013-02-12 19:06:00,36.4,36.4,29.69,South,186,0.0,4.0,100,0.00,,,0.13,WSDL version 423,2013-02-13 00:06:00,
2013-02-12 19:16:00,36.5,36.5,29.69,WSW,244,0.0,4.0,100,0.00,,,0.13,WSDL version 423,2013-02-13 00:16:00,
2013-02-12 19:26:00,36.5,36.5,29.71,West,267,1.6,5.8,100,0.00,,,0.13,WSDL version 423,2013-02-13 00:26:00,
2013-02-12 19:36:00,36.5,36.5,29.72,West,264,1.0,4.0,100,0.00,,,0.13,WSDL version 423,2013-02-13 00:36:00,
2013-02-12 19:46:00,36.4,36.4,29.73,WNW,285,0.4,3.6,100,0.00,,,0.13,WSDL version 423,2013-02-13 00:46:00,
2013-02-12 19:56:00,36.6,36.6,29.74,SW,225,1.6,4.0,100,0.00,,,0.13,WSDL version 423,2013-02-13 00:56:00,
2013-02-12 20:06:00,36.5,36.5,29.75,West,260,2.3,4.0,100,0.00,,,0.13,WSDL version 423,2013-02-13 01:06:00,
2013-02-12 20:16:00,36.5,36.5,29.76,ESE,115,0.7,3.6,100,0.00,,,0.13,WSDL version 423,2013-02-13 01:16:00,
2013-02-12 20:26:00,36.4,36.4,29.76,West,260,1.0,4.9,100,0.00,,,0.13,WSDL version 423,2013-02-13 01:26:00,
2013-02-12 20:36:00,36.4,36.4,29.77,SW,214,2.5,7.6,100,0.00,,,0.13,WSDL version 423,2013-02-13 01:36:00,
2013-02-12 20:46:00,36.5,36.5,29.77,NNE,32,0.0,8.1,100,0.00,,,0.13,WSDL version 423,2013-02-13 01:46:00,
2013-02-12 20:56:00,36.3,36.3,29.77,NNW,334,0.0,3.6,100,0.00,,,0.13,WSDL version 423,2013-02-13 01:56:00,
2013-02-12 21:06:00,36.2,36.2,29.77,WNW,302,0.0,5.4,100,0.00,,,0.13,WSDL version 423,2013-02-13 02:06:00,
2013-02-12 21:16:00,36.1,36.1,29.76,NNE,14,0.0,4.9,100,0.00,,,0.13,WSDL version 423,2013-02-13 02:16:00,
2013-02-12 21:26:00,36.0,36.0,29.75,North,3,1.9,7.6,100,0.00,,,0.13,WSDL version 423,2013-02-13 02:26:00,
2013-02-12 21:36:00,35.4,35.4,29.74,SW,230,1.8,4.9,100,0.00,,,0.13,WSDL version 423,2013-02-13 02:36:00,
2013-02-12 21:46:00,35.0,35.0,29.73,NNW,343,1.1,5.8,100,0.00,,,0.13,WSDL version 423,2013-02-13 02:46:00,
2013-02-12 21:56:00,34.9,34.9,29.73,WNW,283,0.0,5.8,100,0.00,,,0.13,WSDL version 423,2013-02-13 02:56:00,
2013-02-12 22:06:00,34.4,34.4,29.73,NE,45,0.0,3.1,100,0.00,,,0.13,WSDL version 423,2013-02-13 03:06:00,
2013-02-12 22:16:00,34.2,34.2,29.74,NNE,23,0.0,2.7,100,0.00,,,0.13,WSDL version 423,2013-02-13 03:16:00,
2013-02-12 22:26:00,33.8,33.8,29.73,West,270,0.0,4.0,100,0.00,,,0.13,WSDL version 423,2013-02-13 03:26:00,
2013-02-12 22:36:00,33.4,33.4,29.73,West,270,0.0,3.1,100,0.00,,,0.13,WSDL version 423,2013-02-13 03:36:00,
2013-02-12 22:46:00,33.4,33.4,29.73,NW,315,0.0,4.5,100,0.00,,,0.13,WSDL version 423,2013-02-13 03:46:00,
2013-02-12 22:56:00,33.2,33.2,29.71,SW,225,0.0,2.7,100,0.00,,,0.13,WSDL version 423,2013-02-13 03:56:00,
2013-02-12 23:06:00,32.5,32.5,29.71,SW,225,0.0,0.0,100,0.00,,,0.13,WSDL version 423,2013-02-13 04:06:00,
2013-02-12 23:16:00,32.3,32.3,29.71,SW,225,0.0,0.0,100,0.00,,,0.13,WSDL version 423,2013-02-13 04:16:00,
2013-02-12 23:26:00,32.1,32.1,29.72,West,270,0.0,0.0,100,0.00,,,0.13,WSDL version 423,2013-02-13 04:26:00,
2013-02-12 23:36:00,31.5,31.5,29.73,West,270,0.0,0.0,100,0.00,,,0.13,WSDL version 423,2013-02-13 04:36:00,
2013-02-12 23:46:00,31.2,31.2,29.73,West,270,0.0,0.0,100,0.00,,,0.13,WSDL version 423,2013-02-13 04:46:00,
2013-02-12 23:56:00,30.7,30.7,29.73,West,270,0.0,0.0,100,0.00,,,0.13,WSDL version 423,2013-02-13 04:56:00,